createdAt,value
2022-08-23T00:01:39.265Z,20.40
2022-08-23T00:04:11.516Z,20.40
2022-08-23T00:06:41.781Z,20.30
2022-08-23T00:09:11.562Z,20.40
2022-08-23T00:11:45.353Z,20.30
2022-08-23T00:14:17.603Z,20.30
2022-08-23T00:16:47.597Z,20.30
2022-08-23T00:19:18.185Z,20.30
2022-08-23T00:21:48.510Z,20.30
2022-08-23T00:24:18.440Z,20.20
2022-08-23T00:26:59.169Z,20.20
2022-08-23T00:29:31.811Z,20.20
2022-08-23T00:32:01.942Z,20.10
2022-08-23T00:34:31.846Z,20.10
2022-08-23T00:37:01.072Z,20.00
2022-08-23T00:39:30.111Z,20.00
2022-08-23T00:42:25.214Z,20.00
2022-08-23T00:45:12.076Z,19.90
2022-08-23T00:47:41.806Z,19.90
2022-08-23T00:50:24.070Z,19.80
2022-08-23T00:53:03.971Z,19.80
2022-08-23T00:55:33.908Z,19.70
2022-08-23T00:58:04.763Z,19.70
2022-08-23T01:00:34.013Z,19.70
2022-08-23T01:03:04.079Z,19.70
2022-08-23T01:05:52.324Z,19.60
2022-08-23T01:08:24.156Z,19.60
2022-08-23T01:10:58.206Z,19.60
2022-08-23T01:13:34.034Z,19.50
2022-08-23T01:16:10.335Z,19.50
2022-08-23T01:18:40.515Z,19.50
2022-08-23T01:21:15.562Z,19.40
2022-08-23T01:23:49.546Z,19.40
2022-08-23T01:26:21.946Z,19.40
2022-08-23T01:28:52.269Z,19.40
2022-08-23T01:31:23.391Z,19.30
2022-08-23T01:33:58.603Z,19.30
2022-08-23T01:36:28.618Z,19.30
2022-08-23T01:38:59.112Z,19.30
2022-08-23T01:41:28.137Z,19.30
2022-08-23T01:43:56.975Z,19.30
2022-08-23T01:46:28.395Z,19.20
2022-08-23T01:48:58.505Z,19.20
2022-08-23T01:51:31.174Z,19.20
2022-08-23T01:54:01.980Z,19.10
2022-08-23T01:56:38.748Z,19.10
2022-08-23T01:59:14.487Z,19.10
2022-08-23T02:01:48.313Z,19.10
2022-08-23T02:04:18.473Z,19.10
2022-08-23T02:06:48.090Z,19.00
2022-08-23T02:09:22.777Z,19.00
2022-08-23T02:11:56.190Z,19.00
2022-08-23T02:14:26.207Z,19.00
2022-08-23T02:17:04.541Z,18.90
2022-08-23T02:19:39.517Z,18.90
2022-08-23T02:22:09.646Z,18.90
2022-08-23T02:24:43.644Z,18.90
2022-08-23T02:27:15.311Z,18.80
2022-08-23T02:29:47.128Z,18.80
2022-08-23T02:32:18.851Z,18.80
2022-08-23T02:34:51.198Z,18.80
2022-08-23T02:37:33.643Z,18.80
2022-08-23T02:40:04.448Z,18.70
2022-08-23T02:42:34.863Z,18.70
2022-08-23T02:45:05.410Z,18.70
2022-08-23T02:47:37.238Z,18.60
2022-08-23T02:50:21.758Z,18.60
2022-08-23T02:52:51.296Z,18.60
2022-08-23T02:55:21.838Z,18.50
2022-08-23T02:57:51.245Z,18.50
2022-08-23T03:00:21.430Z,18.40
2022-08-23T03:02:52.851Z,18.40
2022-08-23T03:05:22.687Z,18.30
2022-08-23T03:07:51.674Z,18.30
2022-08-23T03:10:23.187Z,18.20
2022-08-23T03:12:58.428Z,18.20
2022-08-23T03:15:27.602Z,18.20
2022-08-23T03:17:56.758Z,18.20
2022-08-23T03:20:25.692Z,18.10
2022-08-23T03:22:55.063Z,18.10
2022-08-23T03:25:28.371Z,18.10
2022-08-23T03:28:16.815Z,18.00
2022-08-23T03:30:47.288Z,18.00
2022-08-23T03:33:16.823Z,18.00
2022-08-23T03:35:48.450Z,18.00
2022-08-23T03:38:19.369Z,17.90
2022-08-23T03:40:52.389Z,17.90
2022-08-23T03:43:22.162Z,17.90
2022-08-23T03:45:51.219Z,17.90
2022-08-23T03:48:20.169Z,17.90
2022-08-23T03:50:50.683Z,17.90
2022-08-23T03:53:25.230Z,17.80
2022-08-23T03:55:57.340Z,17.80
2022-08-23T03:58:27.920Z,17.80
2022-08-23T04:00:57.329Z,17.70
2022-08-23T04:03:27.474Z,17.70
2022-08-23T04:06:04.637Z,17.70
2022-08-23T04:08:34.417Z,17.70
2022-08-23T04:11:08.060Z,17.70
2022-08-23T04:13:40.180Z,17.60
2022-08-23T04:16:09.286Z,17.60
2022-08-23T04:18:39.939Z,17.60
2022-08-23T04:21:11.118Z,17.60
2022-08-23T04:23:41.063Z,17.60
2022-08-23T04:26:12.628Z,17.60
2022-08-23T04:28:44.266Z,17.60
2022-08-23T04:31:15.813Z,17.50
2022-08-23T04:33:52.243Z,17.50
2022-08-23T04:36:23.436Z,17.50
2022-08-23T04:38:53.655Z,17.40
2022-08-23T04:41:42.031Z,17.40
2022-08-23T04:44:12.377Z,17.40
2022-08-23T04:46:43.632Z,17.30
2022-08-23T04:49:13.958Z,17.30
2022-08-23T04:51:43.276Z,17.30
2022-08-23T04:54:23.764Z,17.30
2022-08-23T04:57:12.703Z,17.30
2022-08-23T04:59:43.174Z,17.30
2022-08-23T05:02:12.527Z,17.30
2022-08-23T05:04:42.168Z,17.20
2022-08-23T05:07:11.895Z,17.30
2022-08-23T05:09:40.981Z,17.30
2022-08-23T05:12:10.526Z,17.30
2022-08-23T05:14:40.851Z,17.30
2022-08-23T05:17:13.640Z,17.30
2022-08-23T05:19:44.202Z,17.40
2022-08-23T05:22:17.579Z,17.40
2022-08-23T05:25:07.971Z,17.40
2022-08-23T05:27:37.803Z,17.40
2022-08-23T05:30:15.192Z,17.50
2022-08-23T05:32:45.182Z,17.50
2022-08-23T05:35:15.563Z,17.60
2022-08-23T05:37:47.087Z,17.60
2022-08-23T05:40:18.056Z,17.70
2022-08-23T05:43:00.631Z,17.70
2022-08-23T05:45:30.930Z,17.80
2022-08-23T05:47:59.993Z,17.80
2022-08-23T05:50:38.986Z,17.90
2022-08-23T05:53:10.637Z,17.90
2022-08-23T05:55:40.442Z,18.00
2022-08-23T05:58:18.426Z,18.00
2022-08-23T06:00:49.731Z,18.10
2022-08-23T06:03:18.957Z,18.10
2022-08-23T06:05:49.337Z,18.20
2022-08-23T06:08:18.485Z,18.20
2022-08-23T06:10:47.730Z,18.30
2022-08-23T06:13:26.123Z,18.30
2022-08-23T06:15:57.444Z,18.40
2022-08-23T06:18:27.044Z,18.40
2022-08-23T06:21:05.804Z,18.50
2022-08-23T06:23:46.585Z,18.60
2022-08-23T06:26:18.738Z,18.60
2022-08-23T06:28:50.461Z,18.70
2022-08-23T06:31:38.734Z,18.80
2022-08-23T06:34:13.629Z,18.80
2022-08-23T06:37:20.366Z,19.00
2022-08-23T06:40:09.900Z,19.10
2022-08-23T06:43:11.240Z,19.20
2022-08-23T06:45:54.952Z,19.20
2022-08-23T06:48:29.687Z,19.30
2022-08-23T06:50:58.858Z,19.40
2022-08-23T06:53:33.976Z,19.40
2022-08-23T06:56:18.701Z,19.50
2022-08-23T06:59:06.358Z,19.60
2022-08-23T07:02:07.008Z,19.70
2022-08-23T07:04:56.097Z,19.80
2022-08-23T07:07:39.621Z,19.90
2022-08-23T07:10:15.241Z,20.00
2022-08-23T07:12:44.781Z,20.00
2022-08-23T07:15:15.321Z,20.10
2022-08-23T07:17:48.437Z,20.20
2022-08-23T07:20:19.168Z,20.30
2022-08-23T07:22:48.334Z,20.30
2022-08-23T07:25:18.156Z,20.40
2022-08-23T07:27:50.449Z,20.50
2022-08-23T07:30:22.174Z,20.60
2022-08-23T07:32:52.690Z,20.70
2022-08-23T07:35:25.233Z,20.80
2022-08-23T07:37:59.236Z,20.90
2022-08-23T07:40:38.173Z,21.10
2022-08-23T07:43:08.337Z,21.20
2022-08-23T07:45:40.759Z,21.40
2022-08-23T07:48:12.147Z,21.50
2022-08-23T07:51:01.286Z,21.60
2022-08-23T07:53:38.066Z,21.80
2022-08-23T07:56:11.092Z,22.00
2022-08-23T07:59:04.343Z,22.10
2022-08-23T08:01:41.982Z,22.30
2022-08-23T08:04:12.549Z,22.40
2022-08-23T08:07:04.952Z,22.50
2022-08-23T08:09:40.990Z,22.60
2022-08-23T08:12:11.061Z,22.70
2022-08-23T08:14:42.841Z,22.80
2022-08-23T08:17:13.696Z,22.90
2022-08-23T08:20:12.006Z,23.00
2022-08-23T08:22:50.814Z,23.10
2022-08-23T08:26:02.176Z,23.30
2022-08-23T08:28:32.393Z,23.40
2022-08-23T08:31:02.695Z,23.50
2022-08-23T08:33:34.303Z,23.70
2022-08-23T08:36:05.858Z,23.80
2022-08-23T08:38:48.481Z,23.90
2022-08-23T08:41:30.330Z,24.00
2022-08-23T08:44:11.916Z,24.10
2022-08-23T08:46:46.279Z,24.20
2022-08-23T08:49:32.731Z,24.30
2022-08-23T08:52:12.238Z,24.40
2022-08-23T08:54:48.165Z,24.40
2022-08-23T08:57:25.217Z,24.50
2022-08-23T09:00:01.749Z,24.60
2022-08-23T09:02:35.189Z,24.60
2022-08-23T09:05:14.699Z,24.70
2022-08-23T09:07:53.701Z,24.80
2022-08-23T09:10:48.394Z,24.80
2022-08-23T09:13:46.538Z,24.90
2022-08-23T09:16:30.917Z,24.90
2022-08-23T09:19:02.321Z,25.00
2022-08-23T09:21:39.880Z,25.00
2022-08-23T09:24:10.176Z,25.10
2022-08-23T09:27:01.016Z,25.10
2022-08-23T09:29:33.509Z,25.10
2022-08-23T09:32:04.703Z,25.20
2022-08-23T09:34:43.674Z,25.20
2022-08-23T09:37:19.848Z,25.20
2022-08-23T09:39:52.970Z,25.20
2022-08-23T09:42:36.507Z,25.30
2022-08-23T09:45:09.710Z,25.30
2022-08-23T09:47:44.449Z,25.30
2022-08-23T09:50:26.100Z,25.30
2022-08-23T09:53:04.468Z,25.40
2022-08-23T09:55:38.741Z,25.40
2022-08-23T09:58:23.197Z,25.40
2022-08-23T10:01:11.404Z,25.40
2022-08-23T10:03:43.080Z,25.40
2022-08-23T10:06:34.089Z,25.40
2022-08-23T10:09:08.667Z,25.40
2022-08-23T10:11:44.852Z,25.40
2022-08-23T10:14:18.280Z,25.50
2022-08-23T10:17:00.207Z,25.50
2022-08-23T10:19:38.404Z,25.60
2022-08-23T10:22:15.833Z,25.60
2022-08-23T10:25:02.615Z,25.60
2022-08-23T10:28:00.529Z,25.70
2022-08-23T10:30:41.340Z,25.70
2022-08-23T10:33:18.616Z,25.70
2022-08-23T10:36:03.027Z,25.70
2022-08-23T10:38:38.710Z,25.70
2022-08-23T10:41:42.203Z,25.80
2022-08-23T10:44:24.237Z,25.80
2022-08-23T10:47:09.190Z,25.80
2022-08-23T10:49:42.257Z,25.90
2022-08-23T10:52:18.586Z,25.90
2022-08-23T10:55:00.226Z,25.90
2022-08-23T10:57:35.263Z,25.90
2022-08-23T11:00:09.118Z,26.00
2022-08-23T11:02:50.658Z,26.00
2022-08-23T11:05:33.149Z,26.00
2022-08-23T11:08:10.823Z,26.00
2022-08-23T11:10:55.867Z,26.00
2022-08-23T11:13:29.874Z,26.10
2022-08-23T11:16:03.334Z,26.10
2022-08-23T11:18:43.448Z,26.10
2022-08-23T11:21:45.737Z,26.20
2022-08-23T11:24:50.844Z,26.20
2022-08-23T11:27:37.604Z,26.20
2022-08-23T11:30:46.755Z,26.20
2022-08-23T11:33:23.825Z,26.20
2022-08-23T11:36:17.863Z,26.30
2022-08-23T11:39:10.391Z,26.30
2022-08-23T11:42:01.966Z,26.20
2022-08-23T11:44:40.616Z,26.20
2022-08-23T11:47:13.164Z,26.20
2022-08-23T11:50:09.432Z,26.30
2022-08-23T11:53:15.266Z,26.30
2022-08-23T11:56:07.012Z,26.40
2022-08-23T11:59:02.547Z,26.50
2022-08-23T12:01:39.534Z,26.60
2022-08-23T12:04:14.530Z,26.60
2022-08-23T12:06:50.881Z,26.70
2022-08-23T12:09:56.718Z,26.70
2022-08-23T12:12:40.056Z,26.80
2022-08-23T12:15:13.744Z,26.90
2022-08-23T12:18:13.046Z,26.90
2022-08-23T12:20:48.286Z,27.00
2022-08-23T12:23:21.630Z,27.10
2022-08-23T12:26:08.768Z,27.10
2022-08-23T12:28:46.725Z,27.20
2022-08-23T12:31:23.889Z,27.20
2022-08-23T12:34:16.952Z,27.30
2022-08-23T12:36:50.910Z,27.40
2022-08-23T12:39:28.788Z,27.50
2022-08-23T12:42:07.892Z,27.60
2022-08-23T12:44:38.716Z,27.70
2022-08-23T12:47:14.970Z,27.80
2022-08-23T12:49:56.205Z,28.00
2022-08-23T12:52:27.681Z,28.10
2022-08-23T12:54:58.051Z,28.20
2022-08-23T12:57:33.321Z,28.30
2022-08-23T13:00:18.784Z,28.40
2022-08-23T13:02:54.560Z,28.60
2022-08-23T13:05:33.295Z,28.70
2022-08-23T13:08:05.649Z,28.80
2022-08-23T13:10:35.858Z,28.80
2022-08-23T13:13:05.133Z,28.90
2022-08-23T13:15:50.575Z,28.90
2022-08-23T13:18:31.710Z,28.90
2022-08-23T13:21:27.124Z,29.00
2022-08-23T13:24:00.968Z,29.00
2022-08-23T13:26:38.476Z,29.00
2022-08-23T13:29:25.856Z,29.00
2022-08-23T13:32:04.219Z,29.10
2022-08-23T13:34:48.746Z,29.10
2022-08-23T13:37:24.948Z,29.20
2022-08-23T13:39:57.281Z,29.20
2022-08-23T13:42:29.736Z,29.30
2022-08-23T13:44:58.831Z,29.30
2022-08-23T13:47:30.262Z,29.30
2022-08-23T13:50:11.552Z,29.30
2022-08-23T13:53:03.118Z,29.30
2022-08-23T13:55:31.051Z,29.30
2022-08-23T13:58:00.442Z,29.30
2022-08-23T14:00:30.040Z,29.20
2022-08-23T14:03:01.145Z,29.20
2022-08-23T14:05:30.245Z,29.20
2022-08-23T14:08:02.777Z,29.30
2022-08-23T14:10:32.390Z,29.30
2022-08-23T14:13:02.330Z,29.30
2022-08-23T14:18:22.140Z,29.30
2022-08-23T14:20:51.656Z,29.30
2022-08-23T14:23:20.928Z,29.30
2022-08-23T14:25:53.973Z,29.30
2022-08-23T14:28:24.634Z,29.40
2022-08-23T14:30:54.264Z,29.30
2022-08-23T14:33:24.734Z,29.30
2022-08-23T14:35:54.149Z,29.30
2022-08-23T14:38:23.279Z,29.30
2022-08-23T14:40:59.112Z,29.30
2022-08-23T14:43:29.644Z,29.20
2022-08-23T14:45:59.208Z,29.20
2022-08-23T14:48:30.091Z,29.10
2022-08-23T14:50:59.375Z,29.10
2022-08-23T14:53:31.484Z,29.00
2022-08-23T14:56:20.497Z,29.00
2022-08-23T14:58:50.139Z,28.90
2022-08-23T15:01:19.980Z,28.80
2022-08-23T15:03:50.701Z,28.80
2022-08-23T15:06:21.771Z,28.70
2022-08-23T15:08:51.220Z,28.60
2022-08-23T15:14:09.743Z,28.50
2022-08-23T15:16:39.269Z,28.50
2022-08-23T15:19:09.926Z,28.40
2022-08-23T15:21:39.179Z,28.30
2022-08-23T15:24:08.871Z,28.30
2022-08-23T15:26:38.091Z,28.20
2022-08-23T15:29:07.453Z,28.10
2022-08-23T15:31:36.642Z,28.10
2022-08-23T15:34:05.727Z,28.10
2022-08-23T15:36:44.154Z,28.00
2022-08-23T15:39:13.537Z,28.00
2022-08-23T15:41:42.753Z,27.90
2022-08-23T15:44:11.904Z,27.90
2022-08-23T15:46:41.203Z,27.90
2022-08-23T15:49:13.811Z,27.80
2022-08-23T15:51:44.323Z,27.80
2022-08-23T15:54:13.841Z,27.70
2022-08-23T15:56:46.083Z,27.70
2022-08-23T15:59:17.827Z,27.70
2022-08-23T16:01:47.191Z,27.60
2022-08-23T16:04:16.564Z,27.60
2022-08-23T16:06:47.047Z,27.60
2022-08-23T16:09:20.947Z,27.60
2022-08-23T16:11:51.523Z,27.50
2022-08-23T16:14:20.892Z,27.50
2022-08-23T16:16:49.988Z,27.50
2022-08-23T16:19:18.890Z,27.40
2022-08-23T16:21:53.419Z,27.40
2022-08-23T16:24:24.670Z,27.40
2022-08-23T16:26:54.362Z,27.30
2022-08-23T16:29:23.789Z,27.30
2022-08-23T16:31:53.635Z,27.30
2022-08-23T16:34:23.017Z,27.30
2022-08-23T16:36:57.133Z,27.30
2022-08-23T16:39:26.802Z,27.20
2022-08-23T16:41:56.242Z,27.20
2022-08-23T16:44:25.709Z,27.20
2022-08-23T16:46:54.965Z,27.20
2022-08-23T16:49:24.450Z,27.10
2022-08-23T16:51:56.025Z,27.10
2022-08-23T16:54:25.287Z,27.10
2022-08-23T16:56:54.392Z,27.00
2022-08-23T16:59:23.368Z,27.00
2022-08-23T17:01:56.014Z,27.00
2022-08-23T17:04:30.194Z,27.00
2022-08-23T17:07:01.419Z,26.90
2022-08-23T17:09:30.652Z,26.90
2022-08-23T17:12:00.073Z,26.90
2022-08-23T17:14:29.240Z,26.80
2022-08-23T17:16:59.947Z,26.80
2022-08-23T17:19:29.459Z,26.80
2022-08-23T17:21:59.932Z,26.70
2022-08-23T17:24:29.050Z,26.70
2022-08-23T17:26:58.139Z,26.70
2022-08-23T17:29:27.541Z,26.70
2022-08-23T17:32:00.496Z,26.70
2022-08-23T17:34:29.566Z,26.70
2022-08-23T17:36:59.919Z,26.60
2022-08-23T17:39:30.308Z,26.60
2022-08-23T17:41:59.535Z,26.60
2022-08-23T17:44:28.427Z,26.50
2022-08-23T17:46:57.788Z,26.50
2022-08-23T17:49:26.858Z,26.50
2022-08-23T17:51:55.882Z,26.40
2022-08-23T17:54:26.589Z,26.40
2022-08-23T17:56:56.766Z,26.30
2022-08-23T17:59:25.704Z,26.30
2022-08-23T18:01:54.899Z,26.30
2022-08-23T18:04:24.141Z,26.20
2022-08-23T18:06:53.468Z,26.20
2022-08-23T18:09:22.558Z,26.20
2022-08-23T18:11:52.964Z,26.10
2022-08-23T18:14:23.334Z,26.10
2022-08-23T18:16:52.921Z,26.10
2022-08-23T18:19:23.077Z,26.00
2022-08-23T18:21:52.166Z,26.00
2022-08-23T18:24:21.721Z,26.00
2022-08-23T18:27:10.271Z,26.00
2022-08-23T18:29:39.788Z,25.90
2022-08-23T18:32:12.380Z,25.90
2022-08-23T18:34:42.033Z,25.80
2022-08-23T18:37:11.279Z,25.80
2022-08-23T18:39:40.619Z,25.70
2022-08-23T18:42:12.157Z,25.70
2022-08-23T18:44:41.632Z,25.60
2022-08-23T18:47:10.991Z,25.50
2022-08-23T18:49:40.447Z,25.50
2022-08-23T18:52:09.884Z,25.50
2022-08-23T18:54:39.199Z,25.40
2022-08-23T18:57:08.277Z,25.40
2022-08-23T18:59:47.044Z,25.40
2022-08-23T19:02:17.128Z,25.30
2022-08-23T19:04:46.597Z,25.30
2022-08-23T19:07:16.029Z,25.20
2022-08-23T19:09:45.404Z,25.20
2022-08-23T19:12:14.915Z,25.10
2022-08-23T19:14:43.677Z,25.10
2022-08-23T19:17:14.090Z,25.10
2022-08-23T19:19:42.932Z,25.00
2022-08-23T19:22:13.812Z,25.00
2022-08-23T19:24:43.171Z,25.00
2022-08-23T19:27:12.624Z,24.90
2022-08-23T19:29:43.059Z,24.90
2022-08-23T19:32:13.859Z,24.90
2022-08-23T19:34:43.273Z,24.80
2022-08-23T19:37:20.602Z,24.80
2022-08-23T19:39:53.854Z,24.80
2022-08-23T19:42:23.471Z,24.70
2022-08-23T19:44:52.343Z,24.70
2022-08-23T19:47:28.171Z,24.60
2022-08-23T19:49:58.217Z,24.60
2022-08-23T19:52:27.877Z,24.50
2022-08-23T19:55:00.675Z,24.50
2022-08-23T19:57:35.818Z,24.40
2022-08-23T20:00:13.531Z,24.40
2022-08-23T20:02:47.326Z,24.40
2022-08-23T20:05:16.627Z,24.30
2022-08-23T20:07:46.345Z,24.20
2022-08-23T20:10:16.790Z,24.20
2022-08-23T20:12:46.129Z,24.10
2022-08-23T20:15:15.714Z,24.10
2022-08-23T20:17:45.320Z,24.00
2022-08-23T20:20:16.341Z,24.00
2022-08-23T20:23:03.307Z,23.90
2022-08-23T20:25:32.351Z,23.90
2022-08-23T20:28:05.305Z,23.80
2022-08-23T20:30:35.230Z,23.80
2022-08-23T20:33:04.995Z,23.80
2022-08-23T20:35:35.638Z,23.80
2022-08-23T20:38:05.320Z,23.70
2022-08-23T20:40:34.230Z,23.70
2022-08-23T20:43:03.348Z,23.60
2022-08-23T20:45:33.599Z,23.60
2022-08-23T20:48:02.942Z,23.50
2022-08-23T20:50:32.082Z,23.50
2022-08-23T20:53:02.772Z,23.50
2022-08-23T20:55:31.862Z,23.40
2022-08-23T20:58:00.927Z,23.30
2022-08-23T21:00:30.100Z,23.30
2022-08-23T21:02:59.455Z,23.20
2022-08-23T21:05:28.783Z,23.20
2022-08-23T21:07:58.555Z,23.10
2022-08-23T21:10:29.224Z,23.10
2022-08-23T21:12:58.736Z,23.10
2022-08-23T21:15:28.003Z,23.00
2022-08-23T21:17:57.109Z,23.00
2022-08-23T21:20:26.709Z,23.00
2022-08-23T21:22:55.829Z,22.90
2022-08-23T21:25:25.244Z,22.80
2022-08-23T21:27:58.087Z,22.80
2022-08-23T21:30:30.457Z,22.80
2022-08-23T21:32:59.880Z,22.70
2022-08-23T21:35:29.001Z,22.70
2022-08-23T21:37:58.029Z,22.60
2022-08-23T21:40:27.646Z,22.60
2022-08-23T21:42:58.579Z,22.50
2022-08-23T21:45:28.580Z,22.50
2022-08-23T21:47:58.588Z,22.50
2022-08-23T21:50:30.914Z,22.50
2022-08-23T21:53:01.456Z,22.40
2022-08-23T21:55:36.887Z,22.40
2022-08-23T21:58:08.448Z,22.40
2022-08-23T22:00:38.636Z,22.30
2022-08-23T22:03:07.934Z,22.20
2022-08-23T22:05:40.594Z,22.20
2022-08-23T22:08:10.451Z,22.20
2022-08-23T22:10:52.261Z,22.10
2022-08-23T22:13:29.278Z,22.10
2022-08-23T22:15:58.585Z,22.00
2022-08-23T22:18:27.835Z,22.00
2022-08-23T22:20:58.281Z,22.00
2022-08-23T22:23:28.250Z,21.90
2022-08-23T22:25:59.215Z,21.90
2022-08-23T22:28:32.425Z,21.90
2022-08-23T22:31:03.837Z,21.90
2022-08-23T22:33:34.358Z,21.80
2022-08-23T22:36:05.085Z,21.80
2022-08-23T22:38:34.116Z,21.80
2022-08-23T22:41:03.242Z,21.70
2022-08-23T22:43:33.859Z,21.70
2022-08-23T22:46:05.041Z,21.70
2022-08-23T22:48:35.786Z,21.70
2022-08-23T22:51:07.813Z,21.60
2022-08-23T22:53:39.275Z,21.60
2022-08-23T22:56:10.947Z,21.60
2022-08-23T22:58:41.332Z,21.50
2022-08-23T23:01:13.494Z,21.50
2022-08-23T23:03:42.639Z,21.50
2022-08-23T23:06:11.966Z,21.40
2022-08-23T23:08:41.100Z,21.40
2022-08-23T23:11:12.477Z,21.40
2022-08-23T23:13:42.965Z,21.30
2022-08-23T23:16:14.677Z,21.30
2022-08-23T23:19:04.851Z,21.30
2022-08-23T23:21:34.731Z,21.20
2022-08-23T23:24:04.931Z,21.20
2022-08-23T23:26:33.751Z,21.10
2022-08-23T23:29:03.968Z,21.10
2022-08-23T23:31:32.888Z,21.10
2022-08-23T23:34:01.871Z,21.10
2022-08-23T23:36:30.648Z,21.00
2022-08-23T23:39:00.056Z,21.00
2022-08-23T23:41:29.719Z,21.00
2022-08-23T23:43:58.678Z,20.90
2022-08-23T23:46:29.556Z,20.90
2022-08-23T23:48:58.414Z,20.90
2022-08-23T23:51:29.088Z,20.80
2022-08-23T23:54:01.255Z,20.80
2022-08-23T23:56:32.044Z,20.80
2022-08-23T23:59:01.163Z,20.70
